sensor_id;sensor_type;location;lat;lon;timestamp;P1;durP1;ratioP1;P2;durP2;ratioP2
14060;SDS011;7105;43.616;1.434;2022-08-19T00:00:15;6.25;;;5.65;;
14060;SDS011;7105;43.616;1.434;2022-08-19T00:02:41;7.28;;;5.25;;
14060;SDS011;7105;43.616;1.434;2022-08-19T00:05:09;6.38;;;5.75;;
14060;SDS011;7105;43.616;1.434;2022-08-19T00:07:35;9.77;;;6.22;;
14060;SDS011;7105;43.616;1.434;2022-08-19T00:10:02;9.60;;;6.00;;
14060;SDS011;7105;43.616;1.434;2022-08-19T00:12:29;7.20;;;5.60;;
14060;SDS011;7105;43.616;1.434;2022-08-19T00:14:55;7.07;;;6.03;;
14060;SDS011;7105;43.616;1.434;2022-08-19T00:17:21;8.32;;;5.85;;
14060;SDS011;7105;43.616;1.434;2022-08-19T00:19:47;6.55;;;5.90;;
14060;SDS011;7105;43.616;1.434;2022-08-19T00:22:12;6.65;;;5.50;;
14060;SDS011;7105;43.616;1.434;2022-08-19T00:24:38;7.05;;;5.80;;
14060;SDS011;7105;43.616;1.434;2022-08-19T00:27:06;8.25;;;5.95;;
14060;SDS011;7105;43.616;1.434;2022-08-19T00:29:31;7.68;;;5.65;;
14060;SDS011;7105;43.616;1.434;2022-08-19T00:31:57;7.30;;;5.88;;
14060;SDS011;7105;43.616;1.434;2022-08-19T00:34:25;8.43;;;6.35;;
14060;SDS011;7105;43.616;1.434;2022-08-19T00:36:53;9.20;;;6.57;;
14060;SDS011;7105;43.616;1.434;2022-08-19T00:39:19;8.90;;;5.88;;
14060;SDS011;7105;43.616;1.434;2022-08-19T00:41:45;7.13;;;6.05;;
14060;SDS011;7105;43.616;1.434;2022-08-19T00:44:16;9.05;;;6.30;;
14060;SDS011;7105;43.616;1.434;2022-08-19T00:46:52;7.72;;;5.82;;
14060;SDS011;7105;43.616;1.434;2022-08-19T00:51:48;10.80;;;6.18;;
14060;SDS011;7105;43.616;1.434;2022-08-19T00:54:17;8.82;;;6.57;;
14060;SDS011;7105;43.616;1.434;2022-08-19T00:56:44;7.88;;;5.90;;
14060;SDS011;7105;43.616;1.434;2022-08-19T00:59:11;9.83;;;6.20;;
14060;SDS011;7105;43.616;1.434;2022-08-19T01:01:38;8.85;;;7.00;;
14060;SDS011;7105;43.616;1.434;2022-08-19T01:04:06;12.60;;;6.60;;
14060;SDS011;7105;43.616;1.434;2022-08-19T01:06:32;9.20;;;6.30;;
14060;SDS011;7105;43.616;1.434;2022-08-19T01:08:59;7.27;;;6.57;;
14060;SDS011;7105;43.616;1.434;2022-08-19T01:11:26;9.90;;;7.03;;
14060;SDS011;7105;43.616;1.434;2022-08-19T01:13:53;9.05;;;6.55;;
14060;SDS011;7105;43.616;1.434;2022-08-19T01:16:20;10.68;;;6.72;;
14060;SDS011;7105;43.616;1.434;2022-08-19T01:18:48;13.02;;;6.75;;
14060;SDS011;7105;43.616;1.434;2022-08-19T01:21:22;8.18;;;6.55;;
14060;SDS011;7105;43.616;1.434;2022-08-19T01:23:57;10.40;;;6.80;;
14060;SDS011;7105;43.616;1.434;2022-08-19T01:26:24;8.70;;;6.90;;
14060;SDS011;7105;43.616;1.434;2022-08-19T01:28:51;11.00;;;7.10;;
14060;SDS011;7105;43.616;1.434;2022-08-19T01:31:21;7.90;;;6.30;;
14060;SDS011;7105;43.616;1.434;2022-08-19T01:33:49;10.52;;;7.15;;
14060;SDS011;7105;43.616;1.434;2022-08-19T01:36:38;9.95;;;6.85;;
14060;SDS011;7105;43.616;1.434;2022-08-19T01:39:08;10.82;;;7.03;;
14060;SDS011;7105;43.616;1.434;2022-08-19T01:41:36;8.23;;;6.82;;
14060;SDS011;7105;43.616;1.434;2022-08-19T01:44:02;9.63;;;6.82;;
14060;SDS011;7105;43.616;1.434;2022-08-19T01:46:30;8.63;;;6.97;;
14060;SDS011;7105;43.616;1.434;2022-08-19T01:48:57;8.03;;;6.67;;
14060;SDS011;7105;43.616;1.434;2022-08-19T01:51:22;11.13;;;6.75;;
14060;SDS011;7105;43.616;1.434;2022-08-19T01:53:49;10.90;;;6.97;;
14060;SDS011;7105;43.616;1.434;2022-08-19T01:56:15;8.50;;;6.50;;
14060;SDS011;7105;43.616;1.434;2022-08-19T01:58:44;12.23;;;7.72;;
14060;SDS011;7105;43.616;1.434;2022-08-19T02:01:15;10.27;;;6.63;;
14060;SDS011;7105;43.616;1.434;2022-08-19T02:03:42;9.53;;;6.57;;
14060;SDS011;7105;43.616;1.434;2022-08-19T02:06:08;8.93;;;6.80;;
14060;SDS011;7105;43.616;1.434;2022-08-19T02:08:34;11.40;;;7.03;;
14060;SDS011;7105;43.616;1.434;2022-08-19T02:11:02;10.73;;;6.70;;
14060;SDS011;7105;43.616;1.434;2022-08-19T02:13:29;10.20;;;7.17;;
14060;SDS011;7105;43.616;1.434;2022-08-19T02:15:55;9.53;;;7.23;;
14060;SDS011;7105;43.616;1.434;2022-08-19T02:18:21;11.60;;;6.83;;
14060;SDS011;7105;43.616;1.434;2022-08-19T02:20:47;10.43;;;6.70;;
14060;SDS011;7105;43.616;1.434;2022-08-19T02:23:13;10.60;;;6.57;;
14060;SDS011;7105;43.616;1.434;2022-08-19T02:25:41;8.10;;;6.60;;
14060;SDS011;7105;43.616;1.434;2022-08-19T02:28:09;9.83;;;6.73;;
14060;SDS011;7105;43.616;1.434;2022-08-19T02:30:36;8.93;;;6.67;;
14060;SDS011;7105;43.616;1.434;2022-08-19T02:33:03;13.53;;;6.77;;
14060;SDS011;7105;43.616;1.434;2022-08-19T02:35:29;9.17;;;6.80;;
14060;SDS011;7105;43.616;1.434;2022-08-19T02:37:55;10.97;;;6.90;;
14060;SDS011;7105;43.616;1.434;2022-08-19T02:40:40;11.20;;;6.45;;
14060;SDS011;7105;43.616;1.434;2022-08-19T02:43:09;9.23;;;6.30;;
14060;SDS011;7105;43.616;1.434;2022-08-19T02:45:35;10.47;;;6.77;;
14060;SDS011;7105;43.616;1.434;2022-08-19T02:48:02;12.50;;;7.27;;
14060;SDS011;7105;43.616;1.434;2022-08-19T02:50:29;10.97;;;7.00;;
14060;SDS011;7105;43.616;1.434;2022-08-19T02:52:55;9.40;;;7.00;;
14060;SDS011;7105;43.616;1.434;2022-08-19T02:55:21;11.07;;;7.10;;
14060;SDS011;7105;43.616;1.434;2022-08-19T02:57:47;9.40;;;7.07;;
14060;SDS011;7105;43.616;1.434;2022-08-19T03:00:13;11.43;;;7.10;;
14060;SDS011;7105;43.616;1.434;2022-08-19T03:02:39;10.30;;;7.20;;
14060;SDS011;7105;43.616;1.434;2022-08-19T03:05:06;10.77;;;6.23;;
14060;SDS011;7105;43.616;1.434;2022-08-19T03:07:33;11.97;;;7.13;;
14060;SDS011;7105;43.616;1.434;2022-08-19T03:09:58;10.73;;;6.43;;
14060;SDS011;7105;43.616;1.434;2022-08-19T03:12:24;11.30;;;7.33;;
14060;SDS011;7105;43.616;1.434;2022-08-19T03:14:50;10.67;;;7.23;;
14060;SDS011;7105;43.616;1.434;2022-08-19T03:17:16;9.47;;;6.40;;
14060;SDS011;7105;43.616;1.434;2022-08-19T03:19:42;11.63;;;6.90;;
14060;SDS011;7105;43.616;1.434;2022-08-19T03:22:08;8.87;;;6.90;;
14060;SDS011;7105;43.616;1.434;2022-08-19T03:24:34;9.33;;;6.57;;
14060;SDS011;7105;43.616;1.434;2022-08-19T03:27:00;12.97;;;7.03;;
14060;SDS011;7105;43.616;1.434;2022-08-19T03:29:26;11.60;;;7.13;;
14060;SDS011;7105;43.616;1.434;2022-08-19T03:31:53;10.57;;;6.80;;
14060;SDS011;7105;43.616;1.434;2022-08-19T03:34:26;10.80;;;6.70;;
14060;SDS011;7105;43.616;1.434;2022-08-19T03:36:54;8.80;;;6.13;;
14060;SDS011;7105;43.616;1.434;2022-08-19T03:39:23;12.20;;;7.07;;
14060;SDS011;7105;43.616;1.434;2022-08-19T03:41:50;9.93;;;6.43;;
14060;SDS011;7105;43.616;1.434;2022-08-19T03:44:18;10.20;;;6.40;;
14060;SDS011;7105;43.616;1.434;2022-08-19T03:46:50;10.30;;;6.90;;
14060;SDS011;7105;43.616;1.434;2022-08-19T03:49:19;10.63;;;6.83;;
14060;SDS011;7105;43.616;1.434;2022-08-19T03:51:46;9.03;;;6.80;;
14060;SDS011;7105;43.616;1.434;2022-08-19T03:54:14;9.90;;;6.70;;
14060;SDS011;7105;43.616;1.434;2022-08-19T03:56:41;9.50;;;6.40;;
14060;SDS011;7105;43.616;1.434;2022-08-19T03:59:09;11.33;;;6.90;;
14060;SDS011;7105;43.616;1.434;2022-08-19T04:01:38;11.53;;;6.63;;
14060;SDS011;7105;43.616;1.434;2022-08-19T04:04:04;10.87;;;6.43;;
14060;SDS011;7105;43.616;1.434;2022-08-19T04:06:31;8.67;;;6.70;;
14060;SDS011;7105;43.616;1.434;2022-08-19T04:09:00;10.77;;;6.37;;
14060;SDS011;7105;43.616;1.434;2022-08-19T04:11:29;11.53;;;6.53;;
14060;SDS011;7105;43.616;1.434;2022-08-19T04:13:59;11.17;;;6.70;;
14060;SDS011;7105;43.616;1.434;2022-08-19T04:16:25;10.57;;;6.27;;
14060;SDS011;7105;43.616;1.434;2022-08-19T04:18:54;10.83;;;6.73;;
14060;SDS011;7105;43.616;1.434;2022-08-19T04:21:24;10.87;;;5.83;;
14060;SDS011;7105;43.616;1.434;2022-08-19T04:23:52;11.43;;;6.47;;
14060;SDS011;7105;43.616;1.434;2022-08-19T04:26:23;9.80;;;6.40;;
14060;SDS011;7105;43.616;1.434;2022-08-19T04:28:51;8.00;;;5.93;;
14060;SDS011;7105;43.616;1.434;2022-08-19T04:31:22;11.37;;;6.07;;
14060;SDS011;7105;43.616;1.434;2022-08-19T04:33:51;7.03;;;6.20;;
14060;SDS011;7105;43.616;1.434;2022-08-19T04:36:29;9.57;;;6.37;;
14060;SDS011;7105;43.616;1.434;2022-08-19T04:38:57;8.60;;;5.80;;
14060;SDS011;7105;43.616;1.434;2022-08-19T04:41:24;9.97;;;5.87;;
14060;SDS011;7105;43.616;1.434;2022-08-19T04:44:09;7.90;;;5.70;;
14060;SDS011;7105;43.616;1.434;2022-08-19T04:46:36;9.30;;;5.70;;
14060;SDS011;7105;43.616;1.434;2022-08-19T04:49:03;9.33;;;6.50;;
14060;SDS011;7105;43.616;1.434;2022-08-19T04:51:31;8.93;;;5.33;;
14060;SDS011;7105;43.616;1.434;2022-08-19T04:53:57;11.00;;;6.00;;
14060;SDS011;7105;43.616;1.434;2022-08-19T04:56:24;10.60;;;6.00;;
14060;SDS011;7105;43.616;1.434;2022-08-19T04:58:51;9.90;;;5.80;;
14060;SDS011;7105;43.616;1.434;2022-08-19T05:01:20;9.47;;;6.27;;
14060;SDS011;7105;43.616;1.434;2022-08-19T05:03:52;7.03;;;5.60;;
14060;SDS011;7105;43.616;1.434;2022-08-19T05:06:18;10.43;;;5.37;;
14060;SDS011;7105;43.616;1.434;2022-08-19T05:08:45;9.50;;;6.20;;
14060;SDS011;7105;43.616;1.434;2022-08-19T05:11:15;11.73;;;6.47;;
14060;SDS011;7105;43.616;1.434;2022-08-19T05:13:45;14.87;;;6.80;;
14060;SDS011;7105;43.616;1.434;2022-08-19T05:16:12;11.63;;;5.77;;
14060;SDS011;7105;43.616;1.434;2022-08-19T05:18:39;8.87;;;6.00;;
14060;SDS011;7105;43.616;1.434;2022-08-19T05:21:24;9.03;;;5.93;;
14060;SDS011;7105;43.616;1.434;2022-08-19T05:24:08;11.50;;;6.37;;
14060;SDS011;7105;43.616;1.434;2022-08-19T05:26:37;9.77;;;5.90;;
14060;SDS011;7105;43.616;1.434;2022-08-19T05:29:04;9.63;;;6.03;;
14060;SDS011;7105;43.616;1.434;2022-08-19T05:31:32;11.10;;;5.97;;
14060;SDS011;7105;43.616;1.434;2022-08-19T05:33:59;12.17;;;6.50;;
14060;SDS011;7105;43.616;1.434;2022-08-19T05:36:26;10.33;;;6.20;;
14060;SDS011;7105;43.616;1.434;2022-08-19T05:38:52;7.43;;;6.33;;
14060;SDS011;7105;43.616;1.434;2022-08-19T05:41:19;12.90;;;6.03;;
14060;SDS011;7105;43.616;1.434;2022-08-19T05:43:48;11.67;;;6.20;;
14060;SDS011;7105;43.616;1.434;2022-08-19T05:46:18;10.27;;;5.67;;
14060;SDS011;7105;43.616;1.434;2022-08-19T05:48:44;7.80;;;5.83;;
14060;SDS011;7105;43.616;1.434;2022-08-19T05:51:11;11.63;;;5.97;;
14060;SDS011;7105;43.616;1.434;2022-08-19T05:53:37;10.27;;;5.37;;
14060;SDS011;7105;43.616;1.434;2022-08-19T05:56:06;8.47;;;5.20;;
14060;SDS011;7105;43.616;1.434;2022-08-19T05:58:34;9.37;;;5.60;;
14060;SDS011;7105;43.616;1.434;2022-08-19T06:01:00;12.97;;;5.90;;
14060;SDS011;7105;43.616;1.434;2022-08-19T06:03:30;8.83;;;5.30;;
14060;SDS011;7105;43.616;1.434;2022-08-19T06:05:58;7.43;;;5.97;;
14060;SDS011;7105;43.616;1.434;2022-08-19T06:08:24;12.93;;;6.00;;
14060;SDS011;7105;43.616;1.434;2022-08-19T06:10:51;12.60;;;5.70;;
14060;SDS011;7105;43.616;1.434;2022-08-19T06:13:18;11.07;;;5.73;;
14060;SDS011;7105;43.616;1.434;2022-08-19T06:15:44;8.33;;;6.40;;
14060;SDS011;7105;43.616;1.434;2022-08-19T06:18:12;10.63;;;5.43;;
14060;SDS011;7105;43.616;1.434;2022-08-19T06:20:39;10.47;;;5.60;;
14060;SDS011;7105;43.616;1.434;2022-08-19T06:23:05;8.83;;;5.10;;
14060;SDS011;7105;43.616;1.434;2022-08-19T06:25:33;10.03;;;6.00;;
14060;SDS011;7105;43.616;1.434;2022-08-19T06:27:59;9.60;;;6.07;;
14060;SDS011;7105;43.616;1.434;2022-08-19T06:30:25;8.80;;;5.93;;
14060;SDS011;7105;43.616;1.434;2022-08-19T06:32:51;9.23;;;5.63;;
14060;SDS011;7105;43.616;1.434;2022-08-19T06:35:17;10.45;;;5.95;;
14060;SDS011;7105;43.616;1.434;2022-08-19T06:37:42;10.87;;;5.67;;
14060;SDS011;7105;43.616;1.434;2022-08-19T06:40:09;9.30;;;5.50;;
14060;SDS011;7105;43.616;1.434;2022-08-19T06:42:37;13.25;;;6.00;;
14060;SDS011;7105;43.616;1.434;2022-08-19T06:45:03;8.57;;;5.05;;
14060;SDS011;7105;43.616;1.434;2022-08-19T06:47:30;10.23;;;4.78;;
14060;SDS011;7105;43.616;1.434;2022-08-19T06:49:58;11.05;;;5.03;;
14060;SDS011;7105;43.616;1.434;2022-08-19T06:52:32;9.70;;;4.75;;
14060;SDS011;7105;43.616;1.434;2022-08-19T06:54:59;9.82;;;5.53;;
14060;SDS011;7105;43.616;1.434;2022-08-19T06:57:26;7.13;;;4.85;;
14060;SDS011;7105;43.616;1.434;2022-08-19T06:59:52;10.73;;;5.13;;
14060;SDS011;7105;43.616;1.434;2022-08-19T07:02:18;6.32;;;4.45;;
14060;SDS011;7105;43.616;1.434;2022-08-19T07:04:45;7.05;;;4.60;;
14060;SDS011;7105;43.616;1.434;2022-08-19T07:07:11;8.77;;;4.88;;
14060;SDS011;7105;43.616;1.434;2022-08-19T07:09:40;8.50;;;4.70;;
14060;SDS011;7105;43.616;1.434;2022-08-19T07:12:09;11.52;;;4.88;;
14060;SDS011;7105;43.616;1.434;2022-08-19T07:14:38;8.77;;;5.05;;
14060;SDS011;7105;43.616;1.434;2022-08-19T07:17:05;10.52;;;5.20;;
14060;SDS011;7105;43.616;1.434;2022-08-19T07:19:32;7.57;;;4.95;;
14060;SDS011;7105;43.616;1.434;2022-08-19T07:22:00;7.93;;;5.32;;
14060;SDS011;7105;43.616;1.434;2022-08-19T07:24:28;8.88;;;5.00;;
14060;SDS011;7105;43.616;1.434;2022-08-19T07:26:55;6.57;;;4.20;;
14060;SDS011;7105;43.616;1.434;2022-08-19T07:29:25;8.63;;;4.63;;
14060;SDS011;7105;43.616;1.434;2022-08-19T07:31:54;8.10;;;4.00;;
14060;SDS011;7105;43.616;1.434;2022-08-19T07:34:22;5.85;;;3.72;;
14060;SDS011;7105;43.616;1.434;2022-08-19T07:36:48;6.30;;;4.15;;
14060;SDS011;7105;43.616;1.434;2022-08-19T07:39:17;6.80;;;3.83;;
14060;SDS011;7105;43.616;1.434;2022-08-19T07:41:49;8.70;;;4.32;;
14060;SDS011;7105;43.616;1.434;2022-08-19T07:44:15;7.15;;;3.80;;
14060;SDS011;7105;43.616;1.434;2022-08-19T07:46:44;6.32;;;3.95;;
14060;SDS011;7105;43.616;1.434;2022-08-19T07:49:12;10.15;;;4.63;;
14060;SDS011;7105;43.616;1.434;2022-08-19T07:51:43;6.57;;;4.60;;
14060;SDS011;7105;43.616;1.434;2022-08-19T07:54:11;10.18;;;4.60;;
14060;SDS011;7105;43.616;1.434;2022-08-19T07:56:37;8.25;;;4.18;;
14060;SDS011;7105;43.616;1.434;2022-08-19T07:59:02;8.43;;;3.90;;
14060;SDS011;7105;43.616;1.434;2022-08-19T08:01:28;8.73;;;4.75;;
14060;SDS011;7105;43.616;1.434;2022-08-19T08:03:55;7.70;;;4.68;;
14060;SDS011;7105;43.616;1.434;2022-08-19T08:06:40;5.00;;;4.50;;
14060;SDS011;7105;43.616;1.434;2022-08-19T08:09:32;7.45;;;4.45;;
14060;SDS011;7105;43.616;1.434;2022-08-19T08:12:00;7.18;;;4.38;;
14060;SDS011;7105;43.616;1.434;2022-08-19T08:14:35;6.68;;;4.53;;
14060;SDS011;7105;43.616;1.434;2022-08-19T08:17:04;7.85;;;4.53;;
14060;SDS011;7105;43.616;1.434;2022-08-19T08:19:31;9.15;;;4.20;;
14060;SDS011;7105;43.616;1.434;2022-08-19T08:21:57;7.03;;;4.80;;
14060;SDS011;7105;43.616;1.434;2022-08-19T08:24:25;6.05;;;4.00;;
14060;SDS011;7105;43.616;1.434;2022-08-19T08:26:52;6.90;;;4.20;;
14060;SDS011;7105;43.616;1.434;2022-08-19T08:29:18;8.10;;;4.45;;
14060;SDS011;7105;43.616;1.434;2022-08-19T08:31:44;5.95;;;4.20;;
14060;SDS011;7105;43.616;1.434;2022-08-19T08:34:11;6.72;;;4.25;;
14060;SDS011;7105;43.616;1.434;2022-08-19T08:36:42;7.05;;;4.35;;
14060;SDS011;7105;43.616;1.434;2022-08-19T08:39:10;6.75;;;4.53;;
14060;SDS011;7105;43.616;1.434;2022-08-19T08:41:49;6.18;;;4.30;;
14060;SDS011;7105;43.616;1.434;2022-08-19T08:44:41;5.15;;;4.03;;
14060;SDS011;7105;43.616;1.434;2022-08-19T08:47:17;7.38;;;4.43;;
14060;SDS011;7105;43.616;1.434;2022-08-19T08:52:24;8.57;;;3.83;;
14060;SDS011;7105;43.616;1.434;2022-08-19T08:54:50;6.20;;;4.05;;
14060;SDS011;7105;43.616;1.434;2022-08-19T08:57:23;8.73;;;4.03;;
14060;SDS011;7105;43.616;1.434;2022-08-19T08:59:50;7.07;;;4.60;;
14060;SDS011;7105;43.616;1.434;2022-08-19T09:02:18;7.57;;;4.68;;
14060;SDS011;7105;43.616;1.434;2022-08-19T09:04:44;7.18;;;4.38;;
14060;SDS011;7105;43.616;1.434;2022-08-19T09:07:57;5.53;;;3.90;;
14060;SDS011;7105;43.616;1.434;2022-08-19T09:15:54;4.55;;;4.00;;
14060;SDS011;7105;43.616;1.434;2022-08-19T09:21:18;9.25;;;4.30;;
14060;SDS011;7105;43.616;1.434;2022-08-19T09:23:45;6.40;;;4.00;;
14060;SDS011;7105;43.616;1.434;2022-08-19T09:26:12;7.55;;;4.43;;
14060;SDS011;7105;43.616;1.434;2022-08-19T09:28:41;7.93;;;4.55;;
14060;SDS011;7105;43.616;1.434;2022-08-19T09:31:11;9.93;;;4.88;;
14060;SDS011;7105;43.616;1.434;2022-08-19T09:33:38;7.90;;;4.40;;
14060;SDS011;7105;43.616;1.434;2022-08-19T09:36:08;7.72;;;4.30;;
14060;SDS011;7105;43.616;1.434;2022-08-19T09:38:36;9.00;;;4.50;;
14060;SDS011;7105;43.616;1.434;2022-08-19T09:41:06;6.93;;;4.80;;
14060;SDS011;7105;43.616;1.434;2022-08-19T09:43:33;5.93;;;4.75;;
14060;SDS011;7105;43.616;1.434;2022-08-19T09:46:05;8.07;;;4.80;;
14060;SDS011;7105;43.616;1.434;2022-08-19T09:48:32;6.90;;;4.82;;
14060;SDS011;7105;43.616;1.434;2022-08-19T09:51:03;8.75;;;4.03;;
14060;SDS011;7105;43.616;1.434;2022-08-19T09:53:36;7.50;;;4.13;;
14060;SDS011;7105;43.616;1.434;2022-08-19T09:56:03;5.70;;;4.00;;
14060;SDS011;7105;43.616;1.434;2022-08-19T09:58:29;6.70;;;4.35;;
14060;SDS011;7105;43.616;1.434;2022-08-19T10:00:56;7.43;;;4.20;;
14060;SDS011;7105;43.616;1.434;2022-08-19T10:03:23;7.85;;;4.15;;
14060;SDS011;7105;43.616;1.434;2022-08-19T10:05:50;7.07;;;3.90;;
14060;SDS011;7105;43.616;1.434;2022-08-19T10:08:17;7.32;;;4.05;;
14060;SDS011;7105;43.616;1.434;2022-08-19T10:10:48;5.13;;;3.70;;
14060;SDS011;7105;43.616;1.434;2022-08-19T10:13:15;7.07;;;4.30;;
14060;SDS011;7105;43.616;1.434;2022-08-19T10:15:46;6.28;;;4.00;;
14060;SDS011;7105;43.616;1.434;2022-08-19T10:18:15;6.78;;;4.25;;
14060;SDS011;7105;43.616;1.434;2022-08-19T10:20:42;5.72;;;4.10;;
14060;SDS011;7105;43.616;1.434;2022-08-19T10:23:12;6.88;;;4.20;;
14060;SDS011;7105;43.616;1.434;2022-08-19T10:25:38;6.45;;;4.22;;
14060;SDS011;7105;43.616;1.434;2022-08-19T10:28:04;6.47;;;4.18;;
14060;SDS011;7105;43.616;1.434;2022-08-19T10:30:32;7.40;;;4.40;;
14060;SDS011;7105;43.616;1.434;2022-08-19T10:32:58;6.63;;;4.30;;
14060;SDS011;7105;43.616;1.434;2022-08-19T10:35:24;7.55;;;3.80;;
14060;SDS011;7105;43.616;1.434;2022-08-19T10:37:54;8.30;;;4.00;;
14060;SDS011;7105;43.616;1.434;2022-08-19T10:40:23;6.47;;;4.30;;
14060;SDS011;7105;43.616;1.434;2022-08-19T10:42:53;7.45;;;4.20;;
14060;SDS011;7105;43.616;1.434;2022-08-19T10:45:21;4.43;;;4.00;;
14060;SDS011;7105;43.616;1.434;2022-08-19T10:47:49;5.72;;;4.32;;
14060;SDS011;7105;43.616;1.434;2022-08-19T10:50:15;6.07;;;4.03;;
14060;SDS011;7105;43.616;1.434;2022-08-19T10:53:03;7.68;;;4.40;;
14060;SDS011;7105;43.616;1.434;2022-08-19T10:55:30;4.38;;;3.60;;
14060;SDS011;7105;43.616;1.434;2022-08-19T10:58:15;6.47;;;4.28;;
14060;SDS011;7105;43.616;1.434;2022-08-19T11:00:43;5.45;;;3.90;;
14060;SDS011;7105;43.616;1.434;2022-08-19T11:03:15;6.10;;;3.90;;
14060;SDS011;7105;43.616;1.434;2022-08-19T11:05:41;7.15;;;4.30;;
14060;SDS011;7105;43.616;1.434;2022-08-19T11:08:07;6.10;;;4.18;;
14060;SDS011;7105;43.616;1.434;2022-08-19T11:10:37;8.23;;;3.85;;
14060;SDS011;7105;43.616;1.434;2022-08-19T11:13:07;7.72;;;3.88;;
14060;SDS011;7105;43.616;1.434;2022-08-19T11:15:32;5.00;;;4.00;;
14060;SDS011;7105;43.616;1.434;2022-08-19T11:17:58;5.68;;;4.20;;
14060;SDS011;7105;43.616;1.434;2022-08-19T11:20:24;5.07;;;3.35;;
14060;SDS011;7105;43.616;1.434;2022-08-19T11:22:51;5.32;;;4.13;;
14060;SDS011;7105;43.616;1.434;2022-08-19T11:25:18;4.68;;;4.18;;
14060;SDS011;7105;43.616;1.434;2022-08-19T11:27:44;5.05;;;3.95;;
14060;SDS011;7105;43.616;1.434;2022-08-19T11:30:11;4.80;;;3.88;;
14060;SDS011;7105;43.616;1.434;2022-08-19T11:32:38;6.45;;;4.22;;
14060;SDS011;7105;43.616;1.434;2022-08-19T11:35:07;6.53;;;4.07;;
14060;SDS011;7105;43.616;1.434;2022-08-19T11:37:33;8.00;;;4.35;;
14060;SDS011;7105;43.616;1.434;2022-08-19T11:40:02;5.05;;;4.03;;
14060;SDS011;7105;43.616;1.434;2022-08-19T11:42:29;5.53;;;4.05;;
14060;SDS011;7105;43.616;1.434;2022-08-19T11:45:12;6.13;;;3.58;;
14060;SDS011;7105;43.616;1.434;2022-08-19T11:47:39;6.32;;;4.00;;
14060;SDS011;7105;43.616;1.434;2022-08-19T11:50:04;7.35;;;3.83;;
14060;SDS011;7105;43.616;1.434;2022-08-19T11:52:30;4.13;;;3.63;;
14060;SDS011;7105;43.616;1.434;2022-08-19T11:54:56;5.03;;;3.95;;
14060;SDS011;7105;43.616;1.434;2022-08-19T11:57:22;4.38;;;3.50;;
14060;SDS011;7105;43.616;1.434;2022-08-19T11:59:48;7.85;;;3.88;;
14060;SDS011;7105;43.616;1.434;2022-08-19T12:02:16;5.82;;;4.05;;
14060;SDS011;7105;43.616;1.434;2022-08-19T12:04:42;5.13;;;3.83;;
14060;SDS011;7105;43.616;1.434;2022-08-19T12:07:07;4.68;;;3.75;;
14060;SDS011;7105;43.616;1.434;2022-08-19T12:09:33;4.78;;;3.60;;
14060;SDS011;7105;43.616;1.434;2022-08-19T12:11:59;4.78;;;3.70;;
14060;SDS011;7105;43.616;1.434;2022-08-19T12:14:27;5.15;;;3.63;;
14060;SDS011;7105;43.616;1.434;2022-08-19T12:16:54;4.00;;;3.60;;
14060;SDS011;7105;43.616;1.434;2022-08-19T12:19:20;6.82;;;3.88;;
14060;SDS011;7105;43.616;1.434;2022-08-19T12:21:46;6.95;;;4.00;;
14060;SDS011;7105;43.616;1.434;2022-08-19T12:24:12;4.68;;;3.65;;
14060;SDS011;7105;43.616;1.434;2022-08-19T12:26:38;4.40;;;3.28;;
14060;SDS011;7105;43.616;1.434;2022-08-19T12:29:05;5.47;;;3.47;;
14060;SDS011;7105;43.616;1.434;2022-08-19T12:31:30;4.95;;;4.10;;
14060;SDS011;7105;43.616;1.434;2022-08-19T12:33:56;5.35;;;3.80;;
14060;SDS011;7105;43.616;1.434;2022-08-19T12:36:22;4.75;;;4.35;;
14060;SDS011;7105;43.616;1.434;2022-08-19T12:38:49;5.70;;;4.35;;
14060;SDS011;7105;43.616;1.434;2022-08-19T12:41:16;4.88;;;3.60;;
14060;SDS011;7105;43.616;1.434;2022-08-19T12:43:43;6.72;;;3.53;;
14060;SDS011;7105;43.616;1.434;2022-08-19T12:46:09;5.22;;;3.80;;
14060;SDS011;7105;43.616;1.434;2022-08-19T12:48:36;6.35;;;3.40;;
14060;SDS011;7105;43.616;1.434;2022-08-19T12:51:06;4.82;;;3.15;;
14060;SDS011;7105;43.616;1.434;2022-08-19T12:53:33;6.47;;;3.55;;
14060;SDS011;7105;43.616;1.434;2022-08-19T12:55:59;5.30;;;3.25;;
14060;SDS011;7105;43.616;1.434;2022-08-19T12:58:25;5.32;;;3.33;;
14060;SDS011;7105;43.616;1.434;2022-08-19T13:00:52;4.60;;;3.28;;
14060;SDS011;7105;43.616;1.434;2022-08-19T13:03:17;4.22;;;3.22;;
14060;SDS011;7105;43.616;1.434;2022-08-19T13:05:43;3.72;;;3.08;;
14060;SDS011;7105;43.616;1.434;2022-08-19T13:08:09;4.60;;;3.47;;
14060;SDS011;7105;43.616;1.434;2022-08-19T13:10:36;4.85;;;3.20;;
14060;SDS011;7105;43.616;1.434;2022-08-19T13:13:03;5.40;;;3.30;;
14060;SDS011;7105;43.616;1.434;2022-08-19T13:15:36;5.10;;;3.33;;
14060;SDS011;7105;43.616;1.434;2022-08-19T13:18:04;5.03;;;3.95;;
14060;SDS011;7105;43.616;1.434;2022-08-19T13:20:31;4.93;;;3.28;;
14060;SDS011;7105;43.616;1.434;2022-08-19T13:22:56;5.65;;;3.45;;
14060;SDS011;7105;43.616;1.434;2022-08-19T13:25:22;5.03;;;3.40;;
14060;SDS011;7105;43.616;1.434;2022-08-19T13:27:48;5.38;;;3.15;;
14060;SDS011;7105;43.616;1.434;2022-08-19T13:30:16;4.68;;;3.10;;
14060;SDS011;7105;43.616;1.434;2022-08-19T13:33:01;3.58;;;3.28;;
14060;SDS011;7105;43.616;1.434;2022-08-19T13:35:39;5.00;;;3.42;;
14060;SDS011;7105;43.616;1.434;2022-08-19T13:38:10;7.60;;;3.67;;
14060;SDS011;7105;43.616;1.434;2022-08-19T13:40:38;3.75;;;3.22;;
14060;SDS011;7105;43.616;1.434;2022-08-19T13:43:05;4.07;;;3.33;;
14060;SDS011;7105;43.616;1.434;2022-08-19T13:45:32;5.38;;;3.50;;
14060;SDS011;7105;43.616;1.434;2022-08-19T13:47:59;7.35;;;3.53;;
14060;SDS011;7105;43.616;1.434;2022-08-19T13:50:27;4.10;;;3.30;;
14060;SDS011;7105;43.616;1.434;2022-08-19T13:52:56;4.55;;;3.13;;
14060;SDS011;7105;43.616;1.434;2022-08-19T13:55:22;6.30;;;3.42;;
14060;SDS011;7105;43.616;1.434;2022-08-19T13:57:52;4.88;;;3.10;;
14060;SDS011;7105;43.616;1.434;2022-08-19T14:00:19;3.80;;;3.50;;
14060;SDS011;7105;43.616;1.434;2022-08-19T14:02:46;3.97;;;2.97;;
14060;SDS011;7105;43.616;1.434;2022-08-19T14:05:13;4.85;;;3.10;;
14060;SDS011;7105;43.616;1.434;2022-08-19T14:07:40;4.50;;;3.30;;
14060;SDS011;7105;43.616;1.434;2022-08-19T14:10:07;5.28;;;3.40;;
14060;SDS011;7105;43.616;1.434;2022-08-19T14:12:35;5.50;;;3.50;;
14060;SDS011;7105;43.616;1.434;2022-08-19T14:15:03;4.53;;;3.00;;
14060;SDS011;7105;43.616;1.434;2022-08-19T14:17:30;4.05;;;3.35;;
14060;SDS011;7105;43.616;1.434;2022-08-19T14:20:00;5.00;;;3.40;;
14060;SDS011;7105;43.616;1.434;2022-08-19T14:22:30;3.75;;;3.10;;
14060;SDS011;7105;43.616;1.434;2022-08-19T14:24:56;4.50;;;3.20;;
14060;SDS011;7105;43.616;1.434;2022-08-19T14:27:22;5.63;;;3.10;;
14060;SDS011;7105;43.616;1.434;2022-08-19T14:29:50;5.00;;;3.30;;
14060;SDS011;7105;43.616;1.434;2022-08-19T14:32:16;3.50;;;3.08;;
14060;SDS011;7105;43.616;1.434;2022-08-19T14:34:42;7.50;;;3.50;;
14060;SDS011;7105;43.616;1.434;2022-08-19T14:37:10;3.80;;;3.05;;
14060;SDS011;7105;43.616;1.434;2022-08-19T14:39:38;3.42;;;3.03;;
14060;SDS011;7105;43.616;1.434;2022-08-19T14:42:08;6.07;;;3.08;;
14060;SDS011;7105;43.616;1.434;2022-08-19T14:44:35;3.47;;;2.95;;
14060;SDS011;7105;43.616;1.434;2022-08-19T14:47:00;5.35;;;3.17;;
14060;SDS011;7105;43.616;1.434;2022-08-19T14:49:26;4.10;;;2.95;;
14060;SDS011;7105;43.616;1.434;2022-08-19T14:51:52;6.50;;;3.55;;
14060;SDS011;7105;43.616;1.434;2022-08-19T14:54:19;6.40;;;3.05;;
14060;SDS011;7105;43.616;1.434;2022-08-19T14:56:46;5.45;;;3.60;;
14060;SDS011;7105;43.616;1.434;2022-08-19T14:59:13;4.45;;;3.40;;
14060;SDS011;7105;43.616;1.434;2022-08-19T15:01:39;4.72;;;3.45;;
14060;SDS011;7105;43.616;1.434;2022-08-19T15:04:05;5.97;;;3.58;;
14060;SDS011;7105;43.616;1.434;2022-08-19T15:06:31;4.38;;;2.80;;
14060;SDS011;7105;43.616;1.434;2022-08-19T15:08:57;3.15;;;2.85;;
14060;SDS011;7105;43.616;1.434;2022-08-19T15:11:24;3.90;;;3.10;;
14060;SDS011;7105;43.616;1.434;2022-08-19T15:13:53;3.95;;;3.03;;
14060;SDS011;7105;43.616;1.434;2022-08-19T15:16:20;4.75;;;3.30;;